sensor_id;sensor_type;location;lat;lon;timestamp;P1;durP1;ratioP1;P2;durP2;ratioP2
17141;SDS011;32805;53.556;9.944;2023-03-01T00:01:10;7.35;;;4.65;;
17141;SDS011;32805;53.556;9.944;2023-03-01T00:03:41;4.50;;;3.55;;
17141;SDS011;32805;53.556;9.944;2023-03-01T00:06:10;7.63;;;4.00;;
17141;SDS011;32805;53.556;9.944;2023-03-01T00:08:38;6.18;;;4.15;;
17141;SDS011;32805;53.556;9.944;2023-03-01T00:11:07;8.57;;;4.95;;
17141;SDS011;32805;53.556;9.944;2023-03-01T00:13:37;5.45;;;4.03;;
17141;SDS011;32805;53.556;9.944;2023-03-01T00:16:05;7.18;;;4.50;;
17141;SDS011;32805;53.556;9.944;2023-03-01T00:18:35;5.20;;;4.32;;
17141;SDS011;32805;53.556;9.944;2023-03-01T00:21:03;4.85;;;4.05;;
17141;SDS011;32805;53.556;9.944;2023-03-01T00:23:33;5.88;;;4.43;;
17141;SDS011;32805;53.556;9.944;2023-03-01T00:26:01;5.90;;;4.60;;
17141;SDS011;32805;53.556;9.944;2023-03-01T00:28:29;6.07;;;4.07;;
17141;SDS011;32805;53.556;9.944;2023-03-01T00:30:56;5.07;;;4.10;;
17141;SDS011;32805;53.556;9.944;2023-03-01T00:33:30;7.78;;;4.45;;
17141;SDS011;32805;53.556;9.944;2023-03-01T00:35:59;5.20;;;4.20;;
17141;SDS011;32805;53.556;9.944;2023-03-01T00:38:28;5.45;;;4.40;;
17141;SDS011;32805;53.556;9.944;2023-03-01T00:41:02;6.72;;;4.30;;
17141;SDS011;32805;53.556;9.944;2023-03-01T00:43:34;4.38;;;3.92;;
17141;SDS011;32805;53.556;9.944;2023-03-01T00:46:04;5.65;;;4.13;;
17141;SDS011;32805;53.556;9.944;2023-03-01T00:48:32;6.22;;;4.40;;
17141;SDS011;32805;53.556;9.944;2023-03-01T00:51:06;6.55;;;4.07;;
17141;SDS011;32805;53.556;9.944;2023-03-01T00:53:34;7.20;;;4.03;;
17141;SDS011;32805;53.556;9.944;2023-03-01T00:56:03;4.95;;;4.03;;
17141;SDS011;32805;53.556;9.944;2023-03-01T00:58:33;7.25;;;4.30;;
17141;SDS011;32805;53.556;9.944;2023-03-01T01:01:06;5.15;;;3.95;;
17141;SDS011;32805;53.556;9.944;2023-03-01T01:03:44;5.47;;;3.70;;
17141;SDS011;32805;53.556;9.944;2023-03-01T01:06:15;5.82;;;3.58;;
17141;SDS011;32805;53.556;9.944;2023-03-01T01:08:43;5.60;;;3.97;;
17141;SDS011;32805;53.556;9.944;2023-03-01T01:11:11;5.93;;;3.83;;
17141;SDS011;32805;53.556;9.944;2023-03-01T01:13:39;6.13;;;4.25;;
17141;SDS011;32805;53.556;9.944;2023-03-01T01:16:07;7.93;;;3.97;;
17141;SDS011;32805;53.556;9.944;2023-03-01T01:18:35;8.13;;;4.30;;
17141;SDS011;32805;53.556;9.944;2023-03-01T01:21:03;5.20;;;3.40;;
17141;SDS011;32805;53.556;9.944;2023-03-01T01:23:34;5.70;;;4.03;;
17141;SDS011;32805;53.556;9.944;2023-03-01T01:26:05;4.22;;;3.30;;
17141;SDS011;32805;53.556;9.944;2023-03-01T01:28:33;6.03;;;3.90;;
17141;SDS011;32805;53.556;9.944;2023-03-01T01:31:01;5.65;;;3.90;;
17141;SDS011;32805;53.556;9.944;2023-03-01T01:33:29;5.07;;;3.58;;
17141;SDS011;32805;53.556;9.944;2023-03-01T01:35:57;5.85;;;4.07;;
17141;SDS011;32805;53.556;9.944;2023-03-01T01:38:25;6.50;;;3.78;;
17141;SDS011;32805;53.556;9.944;2023-03-01T01:40:54;5.97;;;3.88;;
17141;SDS011;32805;53.556;9.944;2023-03-01T01:43:22;3.83;;;3.25;;
17141;SDS011;32805;53.556;9.944;2023-03-01T01:45:50;5.53;;;3.28;;
17141;SDS011;32805;53.556;9.944;2023-03-01T01:48:22;5.22;;;3.55;;
17141;SDS011;32805;53.556;9.944;2023-03-01T01:51:07;4.10;;;3.05;;
17141;SDS011;32805;53.556;9.944;2023-03-01T01:53:38;4.35;;;3.67;;
17141;SDS011;32805;53.556;9.944;2023-03-01T01:56:08;5.00;;;4.03;;
17141;SDS011;32805;53.556;9.944;2023-03-01T01:58:39;3.72;;;3.20;;
17141;SDS011;32805;53.556;9.944;2023-03-01T02:01:08;5.78;;;3.65;;
17141;SDS011;32805;53.556;9.944;2023-03-01T02:03:37;8.25;;;3.78;;
17141;SDS011;32805;53.556;9.944;2023-03-01T02:06:12;5.57;;;3.35;;
17141;SDS011;32805;53.556;9.944;2023-03-01T02:08:44;4.53;;;3.55;;
17141;SDS011;32805;53.556;9.944;2023-03-01T02:11:16;5.10;;;3.58;;
17141;SDS011;32805;53.556;9.944;2023-03-01T02:13:47;5.35;;;3.65;;
17141;SDS011;32805;53.556;9.944;2023-03-01T02:16:15;8.27;;;3.70;;
17141;SDS011;32805;53.556;9.944;2023-03-01T02:18:44;6.20;;;3.40;;
17141;SDS011;32805;53.556;9.944;2023-03-01T02:21:16;6.20;;;3.42;;
17141;SDS011;32805;53.556;9.944;2023-03-01T02:23:50;5.47;;;3.58;;
17141;SDS011;32805;53.556;9.944;2023-03-01T02:26:20;5.55;;;3.55;;
17141;SDS011;32805;53.556;9.944;2023-03-01T02:28:51;4.30;;;3.25;;
17141;SDS011;32805;53.556;9.944;2023-03-01T02:31:20;5.00;;;2.88;;
17141;SDS011;32805;53.556;9.944;2023-03-01T02:34:06;3.88;;;2.92;;
17141;SDS011;32805;53.556;9.944;2023-03-01T02:36:36;4.97;;;2.58;;
17141;SDS011;32805;53.556;9.944;2023-03-01T02:39:06;5.07;;;3.15;;
17141;SDS011;32805;53.556;9.944;2023-03-01T02:41:41;3.42;;;2.60;;
17141;SDS011;32805;53.556;9.944;2023-03-01T02:44:12;5.80;;;3.13;;
17141;SDS011;32805;53.556;9.944;2023-03-01T02:46:44;3.63;;;2.67;;
17141;SDS011;32805;53.556;9.944;2023-03-01T02:49:18;5.65;;;2.80;;
17141;SDS011;32805;53.556;9.944;2023-03-01T02:51:52;3.88;;;2.80;;
17141;SDS011;32805;53.556;9.944;2023-03-01T02:54:29;3.38;;;2.97;;
17141;SDS011;32805;53.556;9.944;2023-03-01T02:57:01;3.30;;;2.88;;
17141;SDS011;32805;53.556;9.944;2023-03-01T02:59:32;3.83;;;2.97;;
17141;SDS011;32805;53.556;9.944;2023-03-01T03:02:06;3.95;;;2.83;;
17141;SDS011;32805;53.556;9.944;2023-03-01T03:04:34;4.97;;;3.80;;
17141;SDS011;32805;53.556;9.944;2023-03-01T03:07:02;4.13;;;3.25;;
17141;SDS011;32805;53.556;9.944;2023-03-01T03:09:29;4.72;;;3.35;;
17141;SDS011;32805;53.556;9.944;2023-03-01T03:11:57;9.18;;;3.55;;
17141;SDS011;32805;53.556;9.944;2023-03-01T03:14:25;4.80;;;3.35;;
17141;SDS011;32805;53.556;9.944;2023-03-01T03:16:54;6.43;;;3.35;;
17141;SDS011;32805;53.556;9.944;2023-03-01T03:19:21;4.30;;;2.92;;
17141;SDS011;32805;53.556;9.944;2023-03-01T03:21:49;4.40;;;3.38;;
17141;SDS011;32805;53.556;9.944;2023-03-01T03:24:16;4.95;;;3.50;;
17141;SDS011;32805;53.556;9.944;2023-03-01T03:26:44;7.00;;;3.38;;
17141;SDS011;32805;53.556;9.944;2023-03-01T03:29:12;6.85;;;3.40;;
17141;SDS011;32805;53.556;9.944;2023-03-01T03:31:40;4.05;;;3.25;;
17141;SDS011;32805;53.556;9.944;2023-03-01T03:34:09;5.10;;;3.38;;
17141;SDS011;32805;53.556;9.944;2023-03-01T03:36:43;5.47;;;3.53;;
17141;SDS011;32805;53.556;9.944;2023-03-01T03:39:11;4.53;;;3.50;;
17141;SDS011;32805;53.556;9.944;2023-03-01T03:41:38;5.28;;;3.10;;
17141;SDS011;32805;53.556;9.944;2023-03-01T03:44:06;3.97;;;2.90;;
17141;SDS011;32805;53.556;9.944;2023-03-01T03:46:34;4.25;;;3.42;;
17141;SDS011;32805;53.556;9.944;2023-03-01T03:49:01;6.55;;;3.13;;
17141;SDS011;32805;53.556;9.944;2023-03-01T03:51:30;5.97;;;3.30;;
17141;SDS011;32805;53.556;9.944;2023-03-01T03:53:58;5.68;;;3.15;;
17141;SDS011;32805;53.556;9.944;2023-03-01T03:56:26;9.43;;;3.22;;
17141;SDS011;32805;53.556;9.944;2023-03-01T03:58:54;4.88;;;3.70;;
17141;SDS011;32805;53.556;9.944;2023-03-01T04:01:21;5.55;;;3.30;;
17141;SDS011;32805;53.556;9.944;2023-03-01T04:03:49;5.50;;;3.10;;
17141;SDS011;32805;53.556;9.944;2023-03-01T04:06:21;6.10;;;2.85;;
17141;SDS011;32805;53.556;9.944;2023-03-01T04:08:50;6.45;;;3.15;;
17141;SDS011;32805;53.556;9.944;2023-03-01T04:11:26;3.80;;;2.80;;
17141;SDS011;32805;53.556;9.944;2023-03-01T04:13:54;4.88;;;3.22;;
17141;SDS011;32805;53.556;9.944;2023-03-01T04:16:23;4.80;;;3.00;;
17141;SDS011;32805;53.556;9.944;2023-03-01T04:18:51;4.20;;;2.45;;
17141;SDS011;32805;53.556;9.944;2023-03-01T04:21:24;5.18;;;2.90;;
17141;SDS011;32805;53.556;9.944;2023-03-01T04:23:53;7.30;;;3.45;;
17141;SDS011;32805;53.556;9.944;2023-03-01T04:26:20;5.45;;;3.50;;
17141;SDS011;32805;53.556;9.944;2023-03-01T04:28:48;4.85;;;2.97;;
17141;SDS011;32805;53.556;9.944;2023-03-01T04:31:17;4.20;;;2.67;;
17141;SDS011;32805;53.556;9.944;2023-03-01T04:33:48;4.47;;;3.22;;
17141;SDS011;32805;53.556;9.944;2023-03-01T04:36:18;4.35;;;2.60;;
17141;SDS011;32805;53.556;9.944;2023-03-01T04:38:46;6.38;;;2.70;;
17141;SDS011;32805;53.556;9.944;2023-03-01T04:41:16;5.53;;;2.83;;
17141;SDS011;32805;53.556;9.944;2023-03-01T04:43:45;3.33;;;2.63;;
17141;SDS011;32805;53.556;9.944;2023-03-01T04:46:13;6.15;;;2.63;;
17141;SDS011;32805;53.556;9.944;2023-03-01T04:48:43;2.80;;;2.33;;
17141;SDS011;32805;53.556;9.944;2023-03-01T04:51:12;5.50;;;2.80;;
17141;SDS011;32805;53.556;9.944;2023-03-01T04:53:41;4.28;;;2.20;;
17141;SDS011;32805;53.556;9.944;2023-03-01T04:56:09;8.40;;;3.75;;
17141;SDS011;32805;53.556;9.944;2023-03-01T04:58:38;5.57;;;2.63;;
17141;SDS011;32805;53.556;9.944;2023-03-01T05:01:09;5.55;;;2.80;;
17141;SDS011;32805;53.556;9.944;2023-03-01T05:03:42;4.75;;;2.38;;
17141;SDS011;32805;53.556;9.944;2023-03-01T05:06:10;6.80;;;4.22;;
17141;SDS011;32805;53.556;9.944;2023-03-01T05:08:39;7.30;;;4.10;;
17141;SDS011;32805;53.556;9.944;2023-03-01T05:11:07;3.72;;;2.88;;
17141;SDS011;32805;53.556;9.944;2023-03-01T05:13:36;4.40;;;2.60;;
17141;SDS011;32805;53.556;9.944;2023-03-01T05:16:06;3.92;;;2.92;;
17141;SDS011;32805;53.556;9.944;2023-03-01T05:18:38;4.32;;;2.67;;
17141;SDS011;32805;53.556;9.944;2023-03-01T05:21:07;7.35;;;3.97;;
17141;SDS011;32805;53.556;9.944;2023-03-01T05:23:36;9.32;;;4.68;;
17141;SDS011;32805;53.556;9.944;2023-03-01T05:26:04;11.05;;;3.85;;
17141;SDS011;32805;53.556;9.944;2023-03-01T05:28:51;11.00;;;5.07;;
17141;SDS011;32805;53.556;9.944;2023-03-01T05:31:24;12.40;;;5.70;;
17141;SDS011;32805;53.556;9.944;2023-03-01T05:33:51;9.55;;;5.00;;
17141;SDS011;32805;53.556;9.944;2023-03-01T05:36:19;20.65;;;8.98;;
17141;SDS011;32805;53.556;9.944;2023-03-01T05:38:46;10.07;;;4.63;;
17141;SDS011;32805;53.556;9.944;2023-03-01T05:41:14;7.95;;;3.67;;
17141;SDS011;32805;53.556;9.944;2023-03-01T05:43:43;5.15;;;2.78;;
17141;SDS011;32805;53.556;9.944;2023-03-01T05:46:11;8.25;;;3.47;;
17141;SDS011;32805;53.556;9.944;2023-03-01T05:48:42;7.90;;;4.32;;
17141;SDS011;32805;53.556;9.944;2023-03-01T05:51:10;7.15;;;3.70;;
17141;SDS011;32805;53.556;9.944;2023-03-01T05:53:38;8.15;;;3.83;;
17141;SDS011;32805;53.556;9.944;2023-03-01T05:56:06;3.85;;;3.00;;
17141;SDS011;32805;53.556;9.944;2023-03-01T05:58:34;6.25;;;2.88;;
17141;SDS011;32805;53.556;9.944;2023-03-01T06:01:02;5.15;;;3.03;;
17141;SDS011;32805;53.556;9.944;2023-03-01T06:03:29;3.80;;;2.80;;
17141;SDS011;32805;53.556;9.944;2023-03-01T06:05:58;3.85;;;2.80;;
17141;SDS011;32805;53.556;9.944;2023-03-01T06:08:26;6.88;;;3.88;;
17141;SDS011;32805;53.556;9.944;2023-03-01T06:10:53;3.80;;;3.13;;
17141;SDS011;32805;53.556;9.944;2023-03-01T06:13:22;4.70;;;3.28;;
17141;SDS011;32805;53.556;9.944;2023-03-01T06:15:50;5.82;;;3.55;;
17141;SDS011;32805;53.556;9.944;2023-03-01T06:18:18;3.38;;;2.83;;
17141;SDS011;32805;53.556;9.944;2023-03-01T06:20:51;7.45;;;3.25;;
17141;SDS011;32805;53.556;9.944;2023-03-01T06:23:21;4.72;;;3.10;;
17141;SDS011;32805;53.556;9.944;2023-03-01T06:25:50;7.15;;;3.45;;
17141;SDS011;32805;53.556;9.944;2023-03-01T06:28:18;8.13;;;3.05;;
17141;SDS011;32805;53.556;9.944;2023-03-01T06:30:46;4.07;;;3.03;;
17141;SDS011;32805;53.556;9.944;2023-03-01T06:33:14;3.50;;;2.70;;
17141;SDS011;32805;53.556;9.944;2023-03-01T06:35:41;4.72;;;3.38;;
17141;SDS011;32805;53.556;9.944;2023-03-01T06:38:09;5.43;;;3.22;;
17141;SDS011;32805;53.556;9.944;2023-03-01T06:40:38;7.40;;;3.53;;
17141;SDS011;32805;53.556;9.944;2023-03-01T06:43:06;5.22;;;3.75;;
17141;SDS011;32805;53.556;9.944;2023-03-01T06:45:34;5.35;;;3.20;;
17141;SDS011;32805;53.556;9.944;2023-03-01T06:48:02;4.82;;;3.08;;
17141;SDS011;32805;53.556;9.944;2023-03-01T06:50:31;4.85;;;3.30;;
17141;SDS011;32805;53.556;9.944;2023-03-01T06:53:00;8.45;;;3.50;;
17141;SDS011;32805;53.556;9.944;2023-03-01T06:55:27;7.95;;;3.95;;
17141;SDS011;32805;53.556;9.944;2023-03-01T06:57:57;8.23;;;3.58;;
17141;SDS011;32805;53.556;9.944;2023-03-01T07:00:26;5.38;;;3.88;;
17141;SDS011;32805;53.556;9.944;2023-03-01T07:02:56;4.97;;;2.88;;
17141;SDS011;32805;53.556;9.944;2023-03-01T07:05:25;4.40;;;3.40;;
17141;SDS011;32805;53.556;9.944;2023-03-01T07:07:53;5.00;;;3.47;;
17141;SDS011;32805;53.556;9.944;2023-03-01T07:10:22;5.80;;;3.55;;
17141;SDS011;32805;53.556;9.944;2023-03-01T07:12:50;4.53;;;3.50;;
17141;SDS011;32805;53.556;9.944;2023-03-01T07:15:19;8.15;;;4.10;;
17141;SDS011;32805;53.556;9.944;2023-03-01T07:17:46;7.68;;;3.80;;
17141;SDS011;32805;53.556;9.944;2023-03-01T07:20:16;7.20;;;3.60;;
17141;SDS011;32805;53.556;9.944;2023-03-01T07:22:44;7.70;;;3.60;;
17141;SDS011;32805;53.556;9.944;2023-03-01T07:25:12;5.55;;;3.53;;
17141;SDS011;32805;53.556;9.944;2023-03-01T07:27:40;7.20;;;3.97;;
17141;SDS011;32805;53.556;9.944;2023-03-01T07:30:08;6.03;;;4.00;;
17141;SDS011;32805;53.556;9.944;2023-03-01T07:32:37;7.22;;;4.50;;
17141;SDS011;32805;53.556;9.944;2023-03-01T07:35:06;9.13;;;3.97;;
17141;SDS011;32805;53.556;9.944;2023-03-01T07:37:33;6.93;;;4.75;;
17141;SDS011;32805;53.556;9.944;2023-03-01T07:40:01;6.60;;;4.20;;
17141;SDS011;32805;53.556;9.944;2023-03-01T07:42:29;7.22;;;4.57;;
17141;SDS011;32805;53.556;9.944;2023-03-01T07:44:57;9.70;;;4.43;;
17141;SDS011;32805;53.556;9.944;2023-03-01T07:47:24;6.80;;;4.63;;
17141;SDS011;32805;53.556;9.944;2023-03-01T07:49:53;6.97;;;4.80;;
17141;SDS011;32805;53.556;9.944;2023-03-01T07:52:21;8.88;;;4.95;;
17141;SDS011;32805;53.556;9.944;2023-03-01T07:54:48;7.38;;;5.00;;
17141;SDS011;32805;53.556;9.944;2023-03-01T07:57:16;10.43;;;5.70;;
17141;SDS011;32805;53.556;9.944;2023-03-01T07:59:43;12.43;;;6.13;;
17141;SDS011;32805;53.556;9.944;2023-03-01T08:02:11;10.15;;;6.18;;
17141;SDS011;32805;53.556;9.944;2023-03-01T08:04:41;8.52;;;6.20;;
17141;SDS011;32805;53.556;9.944;2023-03-01T08:07:10;9.30;;;5.80;;
17141;SDS011;32805;53.556;9.944;2023-03-01T08:09:37;10.73;;;6.82;;
17141;SDS011;32805;53.556;9.944;2023-03-01T08:12:05;8.73;;;7.00;;
17141;SDS011;32805;53.556;9.944;2023-03-01T08:14:33;10.80;;;6.75;;
17141;SDS011;32805;53.556;9.944;2023-03-01T08:17:00;11.15;;;6.60;;
17141;SDS011;32805;53.556;9.944;2023-03-01T08:19:29;9.48;;;6.72;;
17141;SDS011;32805;53.556;9.944;2023-03-01T08:21:57;9.60;;;6.50;;
17141;SDS011;32805;53.556;9.944;2023-03-01T08:24:27;11.45;;;6.88;;
17141;SDS011;32805;53.556;9.944;2023-03-01T08:26:55;13.20;;;6.85;;
17141;SDS011;32805;53.556;9.944;2023-03-01T08:29:23;10.38;;;7.53;;
17141;SDS011;32805;53.556;9.944;2023-03-01T08:31:51;11.00;;;7.65;;
17141;SDS011;32805;53.556;9.944;2023-03-01T08:34:19;11.68;;;7.70;;
17141;SDS011;32805;53.556;9.944;2023-03-01T08:36:47;11.77;;;7.72;;
17141;SDS011;32805;53.556;9.944;2023-03-01T08:39:17;12.88;;;8.32;;
17141;SDS011;32805;53.556;9.944;2023-03-01T08:41:46;11.07;;;7.80;;
17141;SDS011;32805;53.556;9.944;2023-03-01T08:44:14;13.52;;;8.45;;
17141;SDS011;32805;53.556;9.944;2023-03-01T08:46:44;12.10;;;9.00;;
17141;SDS011;32805;53.556;9.944;2023-03-01T08:49:13;14.02;;;8.55;;
17141;SDS011;32805;53.556;9.944;2023-03-01T08:51:41;12.82;;;9.18;;
17141;SDS011;32805;53.556;9.944;2023-03-01T08:54:10;10.20;;;8.30;;
17141;SDS011;32805;53.556;9.944;2023-03-01T08:56:40;9.63;;;8.23;;
17141;SDS011;32805;53.556;9.944;2023-03-01T08:59:10;16.17;;;9.95;;
17141;SDS011;32805;53.556;9.944;2023-03-01T09:01:39;11.63;;;8.90;;
17141;SDS011;32805;53.556;9.944;2023-03-01T09:04:09;13.10;;;9.57;;
17141;SDS011;32805;53.556;9.944;2023-03-01T09:06:37;13.90;;;9.70;;
17141;SDS011;32805;53.556;9.944;2023-03-01T09:09:06;13.40;;;9.50;;
17141;SDS011;32805;53.556;9.944;2023-03-01T09:11:35;12.20;;;9.75;;
17141;SDS011;32805;53.556;9.944;2023-03-01T09:14:04;13.48;;;9.50;;
17141;SDS011;32805;53.556;9.944;2023-03-01T09:16:34;13.57;;;9.77;;
17141;SDS011;32805;53.556;9.944;2023-03-01T09:19:03;15.30;;;10.07;;
17141;SDS011;32805;53.556;9.944;2023-03-01T09:21:31;13.40;;;9.43;;
17141;SDS011;32805;53.556;9.944;2023-03-01T09:24:06;12.48;;;9.50;;
17141;SDS011;32805;53.556;9.944;2023-03-01T09:26:39;13.57;;;9.57;;
17141;SDS011;32805;53.556;9.944;2023-03-01T09:29:06;18.00;;;10.07;;
17141;SDS011;32805;53.556;9.944;2023-03-01T09:31:37;22.05;;;10.00;;
17141;SDS011;32805;53.556;9.944;2023-03-01T09:34:05;13.38;;;9.13;;
17141;SDS011;32805;53.556;9.944;2023-03-01T09:36:33;15.45;;;10.02;;
17141;SDS011;32805;53.556;9.944;2023-03-01T09:39:02;15.13;;;9.73;;
17141;SDS011;32805;53.556;9.944;2023-03-01T09:41:42;17.00;;;10.43;;
17141;SDS011;32805;53.556;9.944;2023-03-01T09:46:59;15.88;;;9.68;;
17141;SDS011;32805;53.556;9.944;2023-03-01T09:49:28;16.75;;;10.18;;
17141;SDS011;32805;53.556;9.944;2023-03-01T09:51:58;22.30;;;10.77;;
17141;SDS011;32805;53.556;9.944;2023-03-01T09:54:30;15.15;;;10.13;;
17141;SDS011;32805;53.556;9.944;2023-03-01T09:57:05;16.85;;;11.20;;
17141;SDS011;32805;53.556;9.944;2023-03-01T09:59:45;14.60;;;10.45;;
17141;SDS011;32805;53.556;9.944;2023-03-01T10:02:26;13.40;;;10.15;;
17141;SDS011;32805;53.556;9.944;2023-03-01T10:05:04;14.23;;;9.15;;
17141;SDS011;32805;53.556;9.944;2023-03-01T10:07:42;15.60;;;9.52;;
17141;SDS011;32805;53.556;9.944;2023-03-01T10:10:16;15.63;;;10.00;;
17141;SDS011;32805;53.556;9.944;2023-03-01T10:12:51;13.68;;;9.30;;
17141;SDS011;32805;53.556;9.944;2023-03-01T10:15:22;13.15;;;9.15;;
17141;SDS011;32805;53.556;9.944;2023-03-01T10:17:57;13.57;;;9.73;;
17141;SDS011;32805;53.556;9.944;2023-03-01T10:20:30;15.45;;;10.02;;
17141;SDS011;32805;53.556;9.944;2023-03-01T10:23:08;16.00;;;10.30;;
17141;SDS011;32805;53.556;9.944;2023-03-01T10:25:40;14.85;;;10.63;;
17141;SDS011;32805;53.556;9.944;2023-03-01T10:28:16;14.93;;;10.95;;
17141;SDS011;32805;53.556;9.944;2023-03-01T10:30:47;15.57;;;8.95;;
17141;SDS011;32805;53.556;9.944;2023-03-01T10:33:17;15.55;;;9.93;;
17141;SDS011;32805;53.556;9.944;2023-03-01T10:35:48;12.88;;;8.77;;
17141;SDS011;32805;53.556;9.944;2023-03-01T10:38:16;15.48;;;8.98;;
17141;SDS011;32805;53.556;9.944;2023-03-01T10:40:50;14.27;;;9.48;;
17141;SDS011;32805;53.556;9.944;2023-03-01T10:43:20;14.73;;;10.13;;
17141;SDS011;32805;53.556;9.944;2023-03-01T10:45:48;12.30;;;8.95;;
17141;SDS011;32805;53.556;9.944;2023-03-01T10:48:18;14.02;;;9.25;;
17141;SDS011;32805;53.556;9.944;2023-03-01T10:50:50;16.13;;;10.10;;
17141;SDS011;32805;53.556;9.944;2023-03-01T10:53:33;13.02;;;8.88;;
17141;SDS011;32805;53.556;9.944;2023-03-01T10:56:04;15.10;;;9.10;;
17141;SDS011;32805;53.556;9.944;2023-03-01T10:58:33;14.75;;;7.85;;
17141;SDS011;32805;53.556;9.944;2023-03-01T11:01:03;13.02;;;8.73;;
17141;SDS011;32805;53.556;9.944;2023-03-01T11:03:34;12.02;;;7.50;;
17141;SDS011;32805;53.556;9.944;2023-03-01T11:06:05;10.35;;;7.55;;
17141;SDS011;32805;53.556;9.944;2023-03-01T11:08:47;10.82;;;6.90;;
17141;SDS011;32805;53.556;9.944;2023-03-01T11:11:21;13.77;;;7.70;;
17141;SDS011;32805;53.556;9.944;2023-03-01T11:13:53;12.52;;;7.75;;
17141;SDS011;32805;53.556;9.944;2023-03-01T11:16:23;8.95;;;7.38;;
17141;SDS011;32805;53.556;9.944;2023-03-01T11:18:58;9.10;;;6.65;;
17141;SDS011;32805;53.556;9.944;2023-03-01T11:21:31;12.70;;;8.35;;
17141;SDS011;32805;53.556;9.944;2023-03-01T11:24:01;10.77;;;6.60;;
17141;SDS011;32805;53.556;9.944;2023-03-01T11:26:30;9.55;;;7.05;;
17141;SDS011;32805;53.556;9.944;2023-03-01T11:29:03;12.23;;;7.90;;
17141;SDS011;32805;53.556;9.944;2023-03-01T11:31:38;12.80;;;7.75;;
17141;SDS011;32805;53.556;9.944;2023-03-01T11:34:27;10.07;;;6.88;;
17141;SDS011;32805;53.556;9.944;2023-03-01T11:37:02;11.60;;;7.13;;
17141;SDS011;32805;53.556;9.944;2023-03-01T11:39:37;11.32;;;6.60;;
17141;SDS011;32805;53.556;9.944;2023-03-01T11:42:11;10.52;;;6.80;;
17141;SDS011;32805;53.556;9.944;2023-03-01T11:44:44;10.48;;;6.97;;
17141;SDS011;32805;53.556;9.944;2023-03-01T11:47:19;14.43;;;6.57;;
17141;SDS011;32805;53.556;9.944;2023-03-01T11:52:46;13.05;;;6.93;;
17141;SDS011;32805;53.556;9.944;2023-03-01T11:55:24;7.88;;;6.00;;
17141;SDS011;32805;53.556;9.944;2023-03-01T11:58:17;12.60;;;6.05;;
17141;SDS011;32805;53.556;9.944;2023-03-01T12:01:00;9.90;;;6.57;;
17141;SDS011;32805;53.556;9.944;2023-03-01T12:03:38;12.70;;;6.15;;
17141;SDS011;32805;53.556;9.944;2023-03-01T12:06:37;9.07;;;6.53;;
17141;SDS011;32805;53.556;9.944;2023-03-01T12:09:17;10.65;;;6.05;;
17141;SDS011;32805;53.556;9.944;2023-03-01T12:12:11;5.70;;;4.55;;
17141;SDS011;32805;53.556;9.944;2023-03-01T12:14:59;7.78;;;5.00;;
17141;SDS011;32805;53.556;9.944;2023-03-01T12:17:50;6.88;;;4.70;;
17141;SDS011;32805;53.556;9.944;2023-03-01T12:20:31;9.20;;;4.90;;
17141;SDS011;32805;53.556;9.944;2023-03-01T12:23:11;7.70;;;4.63;;
17141;SDS011;32805;53.556;9.944;2023-03-01T12:25:52;9.05;;;5.25;;
17141;SDS011;32805;53.556;9.944;2023-03-01T12:28:35;8.40;;;5.03;;
17141;SDS011;32805;53.556;9.944;2023-03-01T12:34:28;6.82;;;4.90;;
17141;SDS011;32805;53.556;9.944;2023-03-01T12:37:24;8.40;;;4.82;;
17141;SDS011;32805;53.556;9.944;2023-03-01T12:40:02;6.57;;;5.22;;
17141;SDS011;32805;53.556;9.944;2023-03-01T12:42:44;8.73;;;5.55;;
17141;SDS011;32805;53.556;9.944;2023-03-01T12:45:26;7.13;;;5.65;;
17141;SDS011;32805;53.556;9.944;2023-03-01T12:48:16;8.02;;;5.50;;
17141;SDS011;32805;53.556;9.944;2023-03-01T12:50:52;17.38;;;7.22;;
17141;SDS011;32805;53.556;9.944;2023-03-01T12:53:24;9.50;;;5.18;;
17141;SDS011;32805;53.556;9.944;2023-03-01T12:55:55;7.72;;;4.63;;
17141;SDS011;32805;53.556;9.944;2023-03-01T12:58:28;6.32;;;4.38;;
17141;SDS011;32805;53.556;9.944;2023-03-01T13:01:16;6.53;;;4.90;;
17141;SDS011;32805;53.556;9.944;2023-03-01T13:06:55;6.13;;;4.63;;
17141;SDS011;32805;53.556;9.944;2023-03-01T13:09:34;9.10;;;4.97;;
17141;SDS011;32805;53.556;9.944;2023-03-01T13:12:42;5.60;;;4.50;;
17141;SDS011;32805;53.556;9.944;2023-03-01T13:15:31;7.70;;;4.97;;
17141;SDS011;32805;53.556;9.944;2023-03-01T13:18:00;7.63;;;5.38;;
17141;SDS011;32805;53.556;9.944;2023-03-01T13:20:31;6.65;;;5.20;;
17141;SDS011;32805;53.556;9.944;2023-03-01T13:23:03;6.60;;;4.68;;
17141;SDS011;32805;53.556;9.944;2023-03-01T13:25:34;6.45;;;3.67;;
17141;SDS011;32805;53.556;9.944;2023-03-01T13:34:39;6.20;;;4.85;;
17141;SDS011;32805;53.556;9.944;2023-03-01T13:37:09;7.28;;;4.80;;
17141;SDS011;32805;53.556;9.944;2023-03-01T13:39:39;6.97;;;5.07;;
17141;SDS011;32805;53.556;9.944;2023-03-01T13:44:59;7.88;;;5.18;;
17141;SDS011;32805;53.556;9.944;2023-03-01T13:47:27;6.70;;;4.88;;
17141;SDS011;32805;53.556;9.944;2023-03-01T13:49:56;8.05;;;5.22;;
17141;SDS011;32805;53.556;9.944;2023-03-01T13:55:16;8.48;;;5.10;;
17141;SDS011;32805;53.556;9.944;2023-03-01T13:57:47;7.28;;;5.32;;
17141;SDS011;32805;53.556;9.944;2023-03-01T14:00:29;8.48;;;5.28;;
17141;SDS011;32805;53.556;9.944;2023-03-01T14:03:00;10.00;;;6.47;;
17141;SDS011;32805;53.556;9.944;2023-03-01T14:05:32;9.60;;;5.88;;
17141;SDS011;32805;53.556;9.944;2023-03-01T14:08:00;8.32;;;5.82;;
17141;SDS011;32805;53.556;9.944;2023-03-01T14:10:28;9.45;;;5.88;;
17141;SDS011;32805;53.556;9.944;2023-03-01T14:13:04;8.88;;;6.53;;
17141;SDS011;32805;53.556;9.944;2023-03-01T14:15:47;9.55;;;6.35;;
17141;SDS011;32805;53.556;9.944;2023-03-01T14:18:24;10.60;;;5.72;;
17141;SDS011;32805;53.556;9.944;2023-03-01T14:20:59;7.65;;;4.97;;
17141;SDS011;32805;53.556;9.944;2023-03-01T14:23:28;12.07;;;4.43;;
17141;SDS011;32805;53.556;9.944;2023-03-01T14:25:56;7.03;;;5.00;;
17141;SDS011;32805;53.556;9.944;2023-03-01T14:28:25;6.85;;;4.82;;
17141;SDS011;32805;53.556;9.944;2023-03-01T14:30:57;8.15;;;4.40;;
17141;SDS011;32805;53.556;9.944;2023-03-01T14:33:27;8.27;;;4.50;;
17141;SDS011;32805;53.556;9.944;2023-03-01T14:35:57;8.68;;;4.82;;
17141;SDS011;32805;53.556;9.944;2023-03-01T14:38:30;6.80;;;4.30;;
17141;SDS011;32805;53.556;9.944;2023-03-01T14:41:01;7.28;;;4.07;;
17141;SDS011;32805;53.556;9.944;2023-03-01T14:43:32;6.05;;;3.85;;
17141;SDS011;32805;53.556;9.944;2023-03-01T14:46:01;6.15;;;3.88;;
17141;SDS011;32805;53.556;9.944;2023-03-01T14:48:29;9.55;;;4.60;;
17141;SDS011;32805;53.556;9.944;2023-03-01T14:50:58;7.40;;;4.45;;
17141;SDS011;32805;53.556;9.944;2023-03-01T14:53:27;10.50;;;4.70;;
17141;SDS011;32805;53.556;9.944;2023-03-01T14:56:12;6.22;;;4.28;;
17141;SDS011;32805;53.556;9.944;2023-03-01T14:58:41;9.43;;;6.45;;
17141;SDS011;32805;53.556;9.944;2023-03-01T15:01:12;6.50;;;4.88;;
17141;SDS011;32805;53.556;9.944;2023-03-01T15:03:43;7.68;;;5.10;;
17141;SDS011;32805;53.556;9.944;2023-03-01T15:06:14;7.40;;;5.03;;
17141;SDS011;32805;53.556;9.944;2023-03-01T15:08:44;9.82;;;5.28;;
17141;SDS011;32805;53.556;9.944;2023-03-01T15:11:18;6.82;;;4.57;;
17141;SDS011;32805;53.556;9.944;2023-03-01T15:13:50;7.93;;;4.50;;
17141;SDS011;32805;53.556;9.944;2023-03-01T15:16:20;6.53;;;4.50;;
17141;SDS011;32805;53.556;9.944;2023-03-01T15:18:51;6.65;;;4.63;;
17141;SDS011;32805;53.556;9.944;2023-03-01T15:21:21;9.07;;;5.40;;
17141;SDS011;32805;53.556;9.944;2023-03-01T15:23:51;7.47;;;5.13;;
17141;SDS011;32805;53.556;9.944;2023-03-01T15:26:22;7.15;;;4.78;;
17141;SDS011;32805;53.556;9.944;2023-03-01T15:28:52;8.30;;;5.50;;
17141;SDS011;32805;53.556;9.944;2023-03-01T15:31:26;9.68;;;4.95;;